Time;durP1;ratioP1;P1;durP2;ratioP2;P2;SDS_P1;SDS_P2;PMS_P1;PMS_P2;Temp;Humidity;BMP_temperature;BMP_pressure;BME280_temperature;BME280_humidity;BME280_pressure;Samples;Min_cycle;Max_cycle;Signal;HPM_P1;HPM_P2
2022/04/12 00:01:47;;;;;;;;;;;8.50;63.50;;;;;;5012908;28;19913;-78
2022/04/12 00:04:12;;;;;;;;;;;8.60;63.20;;;;;;5021306;28;19925;-78
2022/04/12 00:06:38;;;;;;;;;;;8.60;62.20;;;;;;5025186;28;19917;-78
2022/04/12 00:09:03;;;;;;;;;;;8.60;63.00;;;;;;5031901;28;19917;-78
2022/04/12 00:11:29;;;;;;;;;;;8.60;62.60;;;;;;5024587;28;19914;-78
2022/04/12 00:13:54;;;;;;;;;;;8.60;62.70;;;;;;5026261;28;19925;-78
2022/04/12 00:16:21;;;;;;;;;;;8.60;62.90;;;;;;5041940;28;19921;-78
2022/04/12 00:19:05;;;;;;;;;;;8.60;63.60;;;;;;5027800;28;19979;-79
2022/04/12 00:21:34;;;;;;;;;;;8.60;62.70;;;;;;5031099;28;19935;-78
2022/04/12 00:24:00;;;;;;;;;;;8.60;61.80;;;;;;5013057;28;19997;-78
2022/04/12 00:26:25;;;;;;;;;;;8.70;62.20;;;;;;5049348;28;19917;-78
2022/04/12 00:28:51;;;;;;;;;;;8.70;62.60;;;;;;5030807;28;19920;-78
2022/04/12 00:31:16;;;;;;;;;;;8.60;61.80;;;;;;5028503;28;19964;-77
2022/04/12 00:33:42;;;;;;;;;;;8.60;62.50;;;;;;5025601;28;19971;-78
2022/04/12 00:36:09;;;;;;;;;;;8.60;63.10;;;;;;5020786;28;20700;-78
2022/04/12 00:38:35;;;;;;;;;;;8.50;63.60;;;;;;5027229;28;19951;-78
2022/04/12 00:41:01;;;;;;;;;;;8.40;64.60;;;;;;5014257;28;20378;-79
2022/04/12 00:43:28;;;;;;;;;;;8.40;63.70;;;;;;5024207;28;20052;-79
2022/04/12 00:45:53;;;;;;;;;;;8.30;64.50;;;;;;5042683;28;20051;-79
2022/04/12 00:48:18;;;;;;;;;;;8.20;63.50;;;;;;5025689;28;20000;-79
2022/04/12 00:50:45;;;;;;;;;;;8.20;65.20;;;;;;5016020;28;19917;-80
2022/04/12 00:53:10;;;;;;;;;;;8.30;64.90;;;;;;5024441;28;19917;-79
2022/04/12 00:55:36;;;;;;;;;;;8.30;64.70;;;;;;5035362;28;19989;-79
2022/04/12 00:58:06;;;;;;;;;;;8.30;64.60;;;;;;5028544;28;19953;-80
2022/04/12 01:00:32;;;;;;;;;;;8.30;64.90;;;;;;5014952;28;20082;-79
2022/04/12 01:02:57;;;;;;;;;;;8.20;65.00;;;;;;5017987;28;19967;-79
2022/04/12 01:05:23;;;;;;;;;;;8.20;64.70;;;;;;5023980;28;19933;-79
2022/04/12 01:07:48;;;;;;;;;;;8.20;65.20;;;;;;5029474;28;19913;-79
2022/04/12 01:10:15;;;;;;;;;;;8.10;65.80;;;;;;5018938;28;19913;-79
2022/04/12 01:12:41;;;;;;;;;;;8.10;66.30;;;;;;5030135;28;20281;-79
2022/04/12 01:15:23;;;;;;;;;;;8.10;65.90;;;;;;5031788;28;19913;-78
2022/04/12 01:17:49;;;;;;;;;;;8.00;66.10;;;;;;5028722;28;19917;-79
2022/04/12 01:20:15;;;;;;;;;;;8.00;66.40;;;;;;5021840;28;19972;-79
2022/04/12 01:22:45;;;;;;;;;;;8.00;65.70;;;;;;5025304;28;19924;-79
2022/04/12 01:25:11;;;;;;;;;;;8.10;65.50;;;;;;5014834;28;19913;-79
2022/04/12 01:27:36;;;;;;;;;;;8.10;65.60;;;;;;5033832;28;19917;-78
2022/04/12 01:30:02;;;;;;;;;;;8.00;66.10;;;;;;5016614;28;19917;-79
2022/04/12 01:32:27;;;;;;;;;;;8.00;66.80;;;;;;5029132;28;20310;-79
2022/04/12 01:34:53;;;;;;;;;;;8.00;66.90;;;;;;5026446;28;19984;-79
2022/04/12 01:37:18;;;;;;;;;;;8.00;66.10;;;;;;5032103;28;20199;-78
2022/04/12 01:39:44;;;;;;;;;;;8.00;66.30;;;;;;5031450;28;20017;-79
2022/04/12 01:42:09;;;;;;;;;;;8.00;66.70;;;;;;5032039;28;19957;-79
2022/04/12 01:44:34;;;;;;;;;;;7.90;66.70;;;;;;5039460;28;19909;-82
2022/04/12 01:47:00;;;;;;;;;;;7.90;67.10;;;;;;5027993;28;20047;-79
2022/04/12 01:49:25;;;;;;;;;;;7.90;67.30;;;;;;5016438;28;20429;-79
2022/04/12 01:51:51;;;;;;;;;;;7.90;67.00;;;;;;5026249;28;19945;-81
2022/04/12 01:54:16;;;;;;;;;;;7.90;66.60;;;;;;5024423;28;19917;-78
2022/04/12 01:56:42;;;;;;;;;;;8.00;66.00;;;;;;5020281;28;19914;-78
2022/04/12 01:59:07;;;;;;;;;;;8.10;66.40;;;;;;5014702;28;19925;-78
2022/04/12 02:01:33;;;;;;;;;;;8.00;66.80;;;;;;5018666;28;19921;-79
2022/04/12 02:03:58;;;;;;;;;;;8.00;66.70;;;;;;5012164;28;20024;-79
2022/04/12 02:06:24;;;;;;;;;;;8.00;67.10;;;;;;5012412;28;19913;-78
2022/04/12 02:08:49;;;;;;;;;;;8.00;67.60;;;;;;5016071;28;19913;-78
2022/04/12 02:11:15;;;;;;;;;;;8.00;67.50;;;;;;5023496;28;19913;-79
2022/04/12 02:13:40;;;;;;;;;;;7.90;67.40;;;;;;5024050;28;19917;-79
2022/04/12 02:16:06;;;;;;;;;;;7.90;67.50;;;;;;5034114;28;20036;-79
2022/04/12 02:18:31;;;;;;;;;;;7.90;67.70;;;;;;5035640;28;19944;-79
2022/04/12 02:20:57;;;;;;;;;;;7.80;68.30;;;;;;5026381;28;19945;-79
2022/04/12 02:23:22;;;;;;;;;;;7.80;68.10;;;;;;5035226;28;19919;-79
2022/04/12 02:25:48;;;;;;;;;;;7.80;67.40;;;;;;5025867;28;19913;-79
2022/04/12 02:28:14;;;;;;;;;;;7.70;67.90;;;;;;5020064;28;19917;-79
2022/04/12 02:30:40;;;;;;;;;;;7.70;67.50;;;;;;5028992;28;20374;-80
2022/04/12 02:33:05;;;;;;;;;;;7.80;67.20;;;;;;5022030;28;19921;-79
2022/04/12 02:35:31;;;;;;;;;;;7.80;67.50;;;;;;5023309;28;19913;-79
2022/04/12 02:37:56;;;;;;;;;;;7.70;68.00;;;;;;5022889;28;20055;-79
2022/04/12 02:40:22;;;;;;;;;;;7.70;68.70;;;;;;5029840;28;19920;-79
2022/04/12 02:42:48;;;;;;;;;;;7.70;68.70;;;;;;5024952;28;19913;-79
2022/04/12 02:45:13;;;;;;;;;;;7.70;68.60;;;;;;5037978;28;19920;-79
2022/04/12 02:47:38;;;;;;;;;;;7.70;68.70;;;;;;5021373;28;19914;-79
2022/04/12 02:50:05;;;;;;;;;;;7.60;68.80;;;;;;5031450;28;19913;-79
2022/04/12 02:52:31;;;;;;;;;;;7.60;69.00;;;;;;5028070;28;20413;-79
2022/04/12 02:54:56;;;;;;;;;;;7.60;68.70;;;;;;5019427;28;19952;-78
2022/04/12 02:57:21;;;;;;;;;;;7.60;69.10;;;;;;5031044;28;19913;-78
2022/04/12 02:59:47;;;;;;;;;;;7.70;68.30;;;;;;5022377;28;20369;-79
2022/04/12 03:02:12;;;;;;;;;;;7.70;68.90;;;;;;5023313;28;19920;-79
2022/04/12 03:04:40;;;;;;;;;;;7.80;67.60;;;;;;5022872;28;19913;-79
2022/04/12 03:07:06;;;;;;;;;;;7.80;67.60;;;;;;5022316;28;19917;-79
2022/04/12 03:09:31;;;;;;;;;;;7.70;67.90;;;;;;5027056;28;19914;-78
2022/04/12 03:11:56;;;;;;;;;;;7.80;68.40;;;;;;5016813;28;20332;-80
2022/04/12 03:14:22;;;;;;;;;;;7.70;68.20;;;;;;5024913;28;19917;-79
2022/04/12 03:16:47;;;;;;;;;;;7.70;68.70;;;;;;5032129;28;19917;-79
2022/04/12 03:19:13;;;;;;;;;;;7.70;68.80;;;;;;5022617;28;19917;-80
2022/04/12 03:21:39;;;;;;;;;;;7.80;68.30;;;;;;5023717;28;19963;-79
2022/04/12 03:24:04;;;;;;;;;;;7.70;68.20;;;;;;5034738;28;19959;-79
2022/04/12 03:26:30;;;;;;;;;;;7.80;68.40;;;;;;5040431;28;19909;-80
2022/04/12 03:28:55;;;;;;;;;;;7.70;68.30;;;;;;5032001;28;19913;-80
2022/04/12 03:31:21;;;;;;;;;;;7.80;68.40;;;;;;5027457;28;19924;-80
2022/04/12 03:33:47;;;;;;;;;;;7.80;68.90;;;;;;5023060;28;19921;-80
2022/04/12 03:36:13;;;;;;;;;;;7.80;68.30;;;;;;5030651;28;19913;-80
2022/04/12 03:38:48;;;;;;;;;;;7.70;68.80;;;;;;5037878;28;20000;-81
2022/04/12 03:41:14;;;;;;;;;;;7.70;69.40;;;;;;5025607;28;19914;-79
2022/04/12 03:43:40;;;;;;;;;;;7.60;70.00;;;;;;5028318;28;19920;-80
2022/04/12 03:46:05;;;;;;;;;;;7.60;70.20;;;;;;5047624;28;19964;-80
2022/04/12 03:48:31;;;;;;;;;;;7.60;70.30;;;;;;5029009;28;20051;-80
2022/04/12 03:50:56;;;;;;;;;;;7.60;70.70;;;;;;5043329;28;19917;-80
2022/04/12 03:53:22;;;;;;;;;;;7.50;70.80;;;;;;5027784;28;20262;-80
2022/04/12 03:55:48;;;;;;;;;;;7.50;70.80;;;;;;5025140;28;19913;-80
2022/04/12 03:58:19;;;;;;;;;;;7.50;71.30;;;;;;5034905;28;20023;-80
2022/04/12 04:00:45;;;;;;;;;;;7.40;71.30;;;;;;5021001;28;19913;-79
2022/04/12 04:03:10;;;;;;;;;;;7.30;71.70;;;;;;5028870;28;19920;-79
2022/04/12 04:05:36;;;;;;;;;;;7.30;72.10;;;;;;5029090;28;20000;-79
2022/04/12 04:08:01;;;;;;;;;;;7.30;72.10;;;;;;5039414;28;19913;-79
2022/04/12 04:10:27;;;;;;;;;;;7.30;72.30;;;;;;5044568;28;19936;-79
2022/04/12 04:12:53;;;;;;;;;;;7.30;71.70;;;;;;5028215;28;19949;-78
2022/04/12 04:15:18;;;;;;;;;;;7.40;70.90;;;;;;5031572;28;19952;-79
2022/04/12 04:17:45;;;;;;;;;;;7.40;70.70;;;;;;5025525;28;19964;-79
2022/04/12 04:20:12;;;;;;;;;;;7.50;71.00;;;;;;5013511;28;19920;-78
2022/04/12 04:22:38;;;;;;;;;;;7.50;70.90;;;;;;5017700;28;20317;-77
2022/04/12 04:25:04;;;;;;;;;;;7.60;70.30;;;;;;5021311;28;19913;-79
2022/04/12 04:27:29;;;;;;;;;;;7.60;70.40;;;;;;5019276;28;19960;-79
2022/04/12 04:29:55;;;;;;;;;;;7.50;71.00;;;;;;5021020;28;19921;-78
2022/04/12 04:32:21;;;;;;;;;;;7.50;71.20;;;;;;5023038;28;19923;-80
2022/04/12 04:34:47;;;;;;;;;;;7.50;71.50;;;;;;5035307;28;20122;-78
2022/04/12 04:37:13;;;;;;;;;;;7.50;71.60;;;;;;5027938;28;19966;-79
2022/04/12 04:39:38;;;;;;;;;;;7.50;71.60;;;;;;5021947;28;19913;-79
2022/04/12 04:42:05;;;;;;;;;;;7.50;71.60;;;;;;5022037;28;19917;-78
2022/04/12 04:44:31;;;;;;;;;;;7.50;71.80;;;;;;5024497;28;19913;-80
2022/04/12 04:46:56;;;;;;;;;;;7.50;72.40;;;;;;5025204;28;19917;-79
2022/04/12 04:49:22;;;;;;;;;;;7.50;72.30;;;;;;5022912;28;19920;-78
2022/04/12 04:51:47;;;;;;;;;;;7.50;72.10;;;;;;5021975;28;19924;-79
2022/04/12 04:54:13;;;;;;;;;;;7.50;72.00;;;;;;5030681;28;19917;-79
2022/04/12 04:56:38;;;;;;;;;;;7.50;72.70;;;;;;5014098;28;20003;-79
2022/04/12 04:59:03;;;;;;;;;;;7.50;72.90;;;;;;5028309;28;19914;-78
2022/04/12 05:01:29;;;;;;;;;;;7.40;71.90;;;;;;5023485;28;20019;-81
2022/04/12 05:03:54;;;;;;;;;;;7.50;72.30;;;;;;5030274;28;19914;-79
2022/04/12 05:06:21;;;;;;;;;;;7.50;72.20;;;;;;5024225;28;19929;-79
2022/04/12 05:08:46;;;;;;;;;;;7.50;71.90;;;;;;5019648;28;19925;-82
2022/04/12 05:11:12;;;;;;;;;;;7.60;71.50;;;;;;5017591;28;19913;-78
2022/04/12 05:13:37;;;;;;;;;;;7.70;71.00;;;;;;5014029;28;19990;-80
2022/04/12 05:16:03;;;;;;;;;;;7.70;71.10;;;;;;5027749;28;19921;-81
2022/04/12 05:18:28;;;;;;;;;;;7.70;71.30;;;;;;5023185;28;19917;-81
2022/04/12 05:20:54;;;;;;;;;;;7.80;71.40;;;;;;5032313;28;20510;-82
2022/04/12 05:23:19;;;;;;;;;;;8.00;69.80;;;;;;5049552;28;19908;-81
2022/04/12 05:25:45;;;;;;;;;;;8.00;69.60;;;;;;5018735;28;19924;-81
2022/04/12 05:28:10;;;;;;;;;;;7.90;70.20;;;;;;5014942;28;19936;-82
2022/04/12 05:30:36;;;;;;;;;;;8.00;70.40;;;;;;5023029;28;20388;-82
2022/04/12 05:33:01;;;;;;;;;;;8.00;70.70;;;;;;5027471;28;19953;-84
2022/04/12 05:35:27;;;;;;;;;;;8.00;71.30;;;;;;5026533;28;19913;-83
2022/04/12 05:37:53;;;;;;;;;;;8.10;70.90;;;;;;5025902;28;19913;-83
2022/04/12 05:40:19;;;;;;;;;;;8.10;71.20;;;;;;5016183;28;19910;-83
2022/04/12 05:42:45;;;;;;;;;;;8.20;71.40;;;;;;5028033;28;19914;-79
2022/04/12 05:45:11;;;;;;;;;;;8.10;71.40;;;;;;5048295;28;19924;-82
2022/04/12 05:47:41;;;;;;;;;;;8.10;71.30;;;;;;5032987;28;19917;-80
2022/04/12 05:50:07;;;;;;;;;;;8.10;71.20;;;;;;5027652;28;19917;-80
2022/04/12 05:52:32;;;;;;;;;;;8.10;71.30;;;;;;5020217;28;19913;-80
2022/04/12 05:54:58;;;;;;;;;;;8.20;71.40;;;;;;5019343;28;19925;-81
2022/04/12 05:57:23;;;;;;;;;;;8.20;71.20;;;;;;5036652;28;19913;-80
2022/04/12 05:59:49;;;;;;;;;;;8.30;70.90;;;;;;5026160;28;19972;-81
2022/04/12 06:02:14;;;;;;;;;;;8.40;70.80;;;;;;5023009;28;19917;-80
2022/04/12 06:04:40;;;;;;;;;;;8.40;71.10;;;;;;5023243;28;19919;-79
2022/04/12 06:07:06;;;;;;;;;;;8.50;70.40;;;;;;5019650;28;20433;-82
2022/04/12 06:09:31;;;;;;;;;;;8.60;70.50;;;;;;5022612;28;19913;-82
2022/04/12 06:11:57;;;;;;;;;;;8.70;70.90;;;;;;5023253;28;19936;-82
2022/04/12 06:14:25;;;;;;;;;;;8.80;70.50;;;;;;5037055;28;20016;-83
2022/04/12 06:16:50;;;;;;;;;;;8.90;70.10;;;;;;5017236;28;20329;-82
2022/04/12 06:19:16;;;;;;;;;;;9.00;69.60;;;;;;5027886;28;19921;-83
2022/04/12 06:21:41;;;;;;;;;;;9.20;67.70;;;;;;5016115;28;19971;-83
2022/04/12 06:24:07;;;;;;;;;;;9.20;67.70;;;;;;5027786;28;19993;-82
2022/04/12 06:26:33;;;;;;;;;;;9.20;68.00;;;;;;5032371;28;19972;-82
2022/04/12 06:28:58;;;;;;;;;;;9.30;68.50;;;;;;5020086;28;19920;-84
2022/04/12 06:31:24;;;;;;;;;;;9.40;68.60;;;;;;5015904;28;19923;-85
2022/04/12 06:33:50;;;;;;;;;;;9.40;69.30;;;;;;5020134;28;19921;-84
2022/04/12 06:36:16;;;;;;;;;;;9.40;69.00;;;;;;5027383;28;20062;-86
2022/04/12 06:38:41;;;;;;;;;;;9.60;68.10;;;;;;5026010;28;19948;-86
2022/04/12 06:41:07;;;;;;;;;;;9.60;68.30;;;;;;5026708;28;19917;-84
2022/04/12 06:43:32;;;;;;;;;;;9.90;67.10;;;;;;5019582;28;19963;-84
2022/04/12 06:45:58;;;;;;;;;;;10.10;66.50;;;;;;5026761;28;19913;-85
2022/04/12 06:48:23;;;;;;;;;;;10.40;65.90;;;;;;5025318;28;19917;-85
2022/04/12 06:50:48;;;;;;;;;;;10.50;65.20;;;;;;5025440;28;20269;-84
2022/04/12 06:53:14;;;;;;;;;;;10.80;63.60;;;;;;5022897;28;19987;-83
2022/04/12 06:55:39;;;;;;;;;;;11.10;61.00;;;;;;5026240;28;20003;-84
2022/04/12 06:58:14;;;;;;;;;;;11.30;60.90;;;;;;5028406;28;19924;-85
2022/04/12 07:00:40;;;;;;;;;;;11.50;59.90;;;;;;5020956;28;19913;-86
2022/04/12 07:03:06;;;;;;;;;;;11.80;60.00;;;;;;5037627;28;19968;-86
2022/04/12 07:05:31;;;;;;;;;;;11.80;59.70;;;;;;5031542;28;20362;-81
2022/04/12 07:07:57;;;;;;;;;;;12.00;59.40;;;;;;5029992;28;20000;-80
2022/04/12 07:10:22;;;;;;;;;;;12.10;56.70;;;;;;5024561;28;20300;-80
2022/04/12 07:12:53;;;;;;;;;;;12.10;57.10;;;;;;5028231;28;19917;-85
2022/04/12 07:15:19;;;;;;;;;;;12.30;57.80;;;;;;5027979;28;19920;-84
2022/04/12 07:17:44;;;;;;;;;;;12.50;56.60;;;;;;5026237;28;20007;-85
2022/04/12 07:20:10;;;;;;;;;;;12.60;55.80;;;;;;5028451;28;19928;-84
2022/04/12 07:22:36;;;;;;;;;;;12.60;57.20;;;;;;5036224;28;19963;-83
2022/04/12 07:25:01;;;;;;;;;;;12.80;57.10;;;;;;5026275;28;19913;-83
2022/04/12 07:27:27;;;;;;;;;;;12.80;55.80;;;;;;5040016;28;19993;-85
2022/04/12 07:29:53;;;;;;;;;;;13.10;56.00;;;;;;5039364;28;19993;-82
2022/04/12 07:32:18;;;;;;;;;;;13.10;56.00;;;;;;5029888;28;20027;-83
2022/04/12 07:34:43;;;;;;;;;;;13.20;53.70;;;;;;5046691;28;19926;-85
2022/04/12 07:37:09;;;;;;;;;;;13.30;54.10;;;;;;5027691;28;19959;-82
2022/04/12 07:39:34;;;;;;;;;;;13.50;54.80;;;;;;5039270;28;20517;-84
2022/04/12 07:42:00;;;;;;;;;;;13.60;55.70;;;;;;5042369;28;19957;-84
2022/04/12 07:44:26;;;;;;;;;;;13.80;55.00;;;;;;5044830;28;19924;-84
2022/04/12 07:46:52;;;;;;;;;;;13.90;53.40;;;;;;5025483;28;19913;-84
2022/04/12 07:49:17;;;;;;;;;;;14.00;52.60;;;;;;5032037;28;19913;-84
2022/04/12 07:51:43;;;;;;;;;;;13.80;53.40;;;;;;5042346;28;19924;-84
2022/04/12 07:54:09;;;;;;;;;;;14.10;52.30;;;;;;5036245;28;19993;-84
2022/04/12 07:56:34;;;;;;;;;;;14.10;51.40;;;;;;5030836;28;19997;-84
2022/04/12 07:59:03;;;;;;;;;;;14.30;50.20;;;;;;5045860;28;19928;-84
2022/04/12 08:01:29;;;;;;;;;;;14.20;51.00;;;;;;5043226;28;19913;-84
2022/04/12 08:03:54;;;;;;;;;;;14.30;50.60;;;;;;5044815;28;20385;-85
2022/04/12 08:06:20;;;;;;;;;;;14.30;51.40;;;;;;5040788;28;19987;-82
2022/04/12 08:08:45;;;;;;;;;;;14.40;50.70;;;;;;5038246;28;19913;-80
2022/04/12 08:11:11;;;;;;;;;;;14.40;50.10;;;;;;5032651;28;19909;-81
2022/04/12 08:13:36;;;;;;;;;;;14.50;50.60;;;;;;5032719;28;19921;-82
2022/04/12 08:16:02;;;;;;;;;;;14.70;50.60;;;;;;5036446;28;20583;-81
2022/04/12 08:18:28;;;;;;;;;;;14.80;51.60;;;;;;5021572;28;19922;-83
2022/04/12 08:20:54;;;;;;;;;;;14.90;51.90;;;;;;5033385;28;19948;-83
2022/04/12 08:23:21;;;;;;;;;;;15.00;50.30;;;;;;5041434;28;20294;-82
2022/04/12 08:25:47;;;;;;;;;;;15.30;48.90;;;;;;5038909;28;20007;-82
2022/04/12 08:28:12;;;;;;;;;;;15.50;48.60;;;;;;5020350;28;19993;-81
2022/04/12 08:30:37;;;;;;;;;;;15.40;49.00;;;;;;5044098;28;19956;-81
2022/04/12 08:33:03;;;;;;;;;;;15.40;49.00;;;;;;5036412;28;19917;-83
2022/04/12 08:35:29;;;;;;;;;;;15.50;49.10;;;;;;5046456;28;19975;-82
2022/04/12 08:37:55;;;;;;;;;;;15.50;49.20;;;;;;5050926;28;19989;-82
2022/04/12 08:40:21;;;;;;;;;;;15.50;48.70;;;;;;5035614;28;19913;-82
2022/04/12 08:42:47;;;;;;;;;;;15.80;48.40;;;;;;5049733;28;19909;-81
2022/04/12 08:45:13;;;;;;;;;;;15.90;48.40;;;;;;5043653;28;19913;-82
2022/04/12 08:47:39;;;;;;;;;;;15.90;48.60;;;;;;5046944;28;19990;-82
2022/04/12 08:50:08;;;;;;;;;;;16.00;48.40;;;;;;5031747;28;19918;-82
2022/04/12 08:52:36;;;;;;;;;;;16.00;48.20;;;;;;5039806;28;19925;-83
2022/04/12 08:55:02;;;;;;;;;;;16.10;47.50;;;;;;5032005;28;19910;-82
2022/04/12 08:57:28;;;;;;;;;;;16.40;47.50;;;;;;5034785;28;19963;-82
2022/04/12 08:59:58;;;;;;;;;;;16.30;48.00;;;;;;5032797;28;19924;-82
2022/04/12 09:02:24;;;;;;;;;;;16.30;48.70;;;;;;5039270;28;19913;-83
2022/04/12 09:04:49;;;;;;;;;;;16.50;48.00;;;;;;5031533;28;20277;-83
2022/04/12 09:07:14;;;;;;;;;;;16.70;47.10;;;;;;5031124;28;19982;-83
2022/04/12 09:09:41;;;;;;;;;;;16.70;46.60;;;;;;5032580;28;20420;-81
2022/04/12 09:12:09;;;;;;;;;;;16.80;47.20;;;;;;5032389;28;19951;-83
2022/04/12 09:14:42;;;;;;;;;;;16.80;46.80;;;;;;5034465;28;19931;-82
2022/04/12 09:17:08;;;;;;;;;;;16.90;46.60;;;;;;5020462;28;19922;-81
2022/04/12 09:19:37;;;;;;;;;;;17.10;45.90;;;;;;5028340;28;19971;-82
2022/04/12 09:22:08;;;;;;;;;;;17.20;45.90;;;;;;5037110;28;19917;-81
2022/04/12 09:24:36;;;;;;;;;;;17.40;45.20;;;;;;5031683;28;19921;-81
2022/04/12 09:27:01;;;;;;;;;;;17.50;45.40;;;;;;5030429;28;19928;-82
2022/04/12 09:29:28;;;;;;;;;;;17.70;44.20;;;;;;5030409;28;20005;-82
2022/04/12 09:31:58;;;;;;;;;;;17.70;43.80;;;;;;5027195;28;19947;-82
2022/04/12 09:34:24;;;;;;;;;;;17.80;43.70;;;;;;5032811;28;20016;-82
2022/04/12 09:36:49;;;;;;;;;;;17.90;43.60;;;;;;5032399;28;19931;-81
2022/04/12 09:39:20;;;;;;;;;;;17.90;43.20;;;;;;5029544;28;19960;-82
2022/04/12 09:41:49;;;;;;;;;;;17.80;42.90;;;;;;5030192;28;19958;-82
2022/04/12 09:44:18;;;;;;;;;;;17.80;43.70;;;;;;5031590;28;19913;-81
2022/04/12 09:46:44;;;;;;;;;;;17.90;44.50;;;;;;5016941;28;20377;-81
2022/04/12 09:49:10;;;;;;;;;;;18.10;43.20;;;;;;5017011;28;19914;-83
2022/04/12 09:51:38;;;;;;;;;;;18.10;43.70;;;;;;5019035;28;19917;-82
2022/04/12 09:54:08;;;;;;;;;;;18.20;44.70;;;;;;5035047;28;19982;-82
2022/04/12 09:56:34;;;;;;;;;;;18.10;44.30;;;;;;5035393;28;20409;-81
2022/04/12 09:59:01;;;;;;;;;;;18.20;44.50;;;;;;5034148;28;20008;-82
2022/04/12 10:01:27;;;;;;;;;;;18.30;42.10;;;;;;5035004;28;20003;-81
2022/04/12 10:03:54;;;;;;;;;;;18.40;41.60;;;;;;5029107;28;19921;-82
2022/04/12 10:06:20;;;;;;;;;;;18.50;41.30;;;;;;5025127;28;19917;-81
2022/04/12 10:08:56;;;;;;;;;;;18.50;41.60;;;;;;5019879;28;19914;-82
2022/04/12 10:11:23;;;;;;;;;;;18.60;41.70;;;;;;5030521;28;19935;-82
2022/04/12 10:13:48;;;;;;;;;;;18.70;42.30;;;;;;5035836;28;20011;-82
2022/04/12 10:16:15;;;;;;;;;;;18.70;41.60;;;;;;5024419;28;19963;-82
2022/04/12 10:18:41;;;;;;;;;;;18.60;41.70;;;;;;5033877;28;20348;-83
2022/04/12 10:21:07;;;;;;;;;;;18.60;42.10;;;;;;5022845;28;20425;-82
2022/04/12 10:23:33;;;;;;;;;;;18.70;41.70;;;;;;5034081;28;19909;-81
2022/04/12 10:26:00;;;;;;;;;;;18.90;42.10;;;;;;5025061;28;20006;-81
2022/04/12 10:28:26;;;;;;;;;;;18.80;40.80;;;;;;5035483;28;19917;-82
2022/04/12 10:31:00;;;;;;;;;;;19.10;40.80;;;;;;5024898;28;19932;-80
2022/04/12 10:33:27;;;;;;;;;;;19.10;40.90;;;;;;5043901;28;19931;-81
2022/04/12 10:35:54;;;;;;;;;;;19.20;39.50;;;;;;5019742;28;19983;-82
2022/04/12 10:38:22;;;;;;;;;;;19.40;39.60;;;;;;5031332;28;19920;-82
2022/04/12 10:40:47;;;;;;;;;;;19.20;40.30;;;;;;5027416;28;19952;-82
2022/04/12 10:43:14;;;;;;;;;;;19.50;39.70;;;;;;5021337;28;20476;-81
2022/04/12 10:45:46;;;;;;;;;;;19.70;39.50;;;;;;5026095;28;19959;-82
2022/04/12 10:48:21;;;;;;;;;;;19.90;38.50;;;;;;5029302;28;19985;-81
2022/04/12 10:50:48;;;;;;;;;;;20.00;38.50;;;;;;5011230;28;19924;-82
2022/04/12 10:53:14;;;;;;;;;;;20.00;37.60;;;;;;5014438;28;19913;-83
2022/04/12 10:55:41;;;;;;;;;;;19.90;38.90;;;;;;5018927;28;19980;-81
2022/04/12 10:58:12;;;;;;;;;;;19.90;38.50;;;;;;5037502;28;19909;-80
2022/04/12 11:00:39;;;;;;;;;;;19.80;38.20;;;;;;5028755;28;19992;-81
2022/04/12 11:03:04;;;;;;;;;;;19.80;38.90;;;;;;5023169;28;19913;-79
2022/04/12 11:05:33;;;;;;;;;;;20.00;38.70;;;;;;5024325;28;19921;-82
2022/04/12 11:07:59;;;;;;;;;;;20.00;38.90;;;;;;5027500;28;19964;-81
2022/04/12 11:10:25;;;;;;;;;;;20.00;38.30;;;;;;5029532;28;19913;-79
2022/04/12 11:13:02;;;;;;;;;;;20.10;38.50;;;;;;5026252;28;19909;-82
2022/04/12 11:15:29;;;;;;;;;;;20.10;37.70;;;;;;5030212;28;19993;-81
2022/04/12 11:18:08;;;;;;;;;;;20.10;39.00;;;;;;5019925;28;19917;-82
2022/04/12 11:20:33;;;;;;;;;;;20.10;38.90;;;;;;5026003;28;19921;-82
2022/04/12 11:23:02;;;;;;;;;;;20.10;39.40;;;;;;5026714;28;20724;-81
2022/04/12 11:25:27;;;;;;;;;;;20.30;37.60;;;;;;5023182;28;19917;-81
2022/04/12 11:27:57;;;;;;;;;;;20.30;38.30;;;;;;5017222;28;19924;-80
2022/04/12 11:30:23;;;;;;;;;;;20.30;39.10;;;;;;5030867;28;19913;-80
2022/04/12 11:32:49;;;;;;;;;;;20.30;39.50;;;;;;5022859;28;20322;-79
2022/04/12 11:35:15;;;;;;;;;;;20.30;39.20;;;;;;5027156;28;20016;-78
2022/04/12 11:37:41;;;;;;;;;;;20.40;38.70;;;;;;5019229;28;20631;-79
2022/04/12 11:40:06;;;;;;;;;;;20.40;38.30;;;;;;5030980;28;20008;-81
2022/04/12 11:42:33;;;;;;;;;;;20.50;38.30;;;;;;5016400;28;20368;-81
2022/04/12 11:44:59;;;;;;;;;;;20.40;38.70;;;;;;5017241;28;19913;-81
2022/04/12 11:47:28;;;;;;;;;;;20.60;37.50;;;;;;5033134;28;19920;-80
2022/04/12 11:49:54;;;;;;;;;;;20.80;38.00;;;;;;5039047;28;19909;-79
2022/04/12 11:52:19;;;;;;;;;;;20.70;38.30;;;;;;5041969;28;19916;-80
2022/04/12 11:54:47;;;;;;;;;;;20.80;38.30;;;;;;5032694;28;19917;-80
2022/04/12 11:57:21;;;;;;;;;;;21.00;36.60;;;;;;5028511;28;19960;-79
2022/04/12 11:59:53;;;;;;;;;;;21.00;36.50;;;;;;5036620;28;19913;-79
2022/04/12 12:02:20;;;;;;;;;;;21.10;36.90;;;;;;5018215;28;19978;-81
2022/04/12 12:04:49;;;;;;;;;;;21.20;37.40;;;;;;5037731;28;19909;-81
2022/04/12 12:07:15;;;;;;;;;;;21.30;36.30;;;;;;5035518;28;19909;-81
2022/04/12 12:09:52;;;;;;;;;;;21.50;37.00;;;;;;5038176;28;19966;-80
2022/04/12 12:12:17;;;;;;;;;;;21.60;36.40;;;;;;5030812;28;19982;-80
2022/04/12 12:14:43;;;;;;;;;;;21.60;35.50;;;;;;5022327;28;20464;-80
2022/04/12 12:17:10;;;;;;;;;;;21.60;36.30;;;;;;5017979;28;19914;-81
2022/04/12 12:19:38;;;;;;;;;;;21.70;36.00;;;;;;5016323;28;19910;-80
2022/04/12 12:22:08;;;;;;;;;;;21.60;37.00;;;;;;5021412;28;19928;-79
2022/04/12 12:24:37;;;;;;;;;;;21.40;36.80;;;;;;5040618;28;19963;-80
2022/04/12 12:27:06;;;;;;;;;;;21.50;35.70;;;;;;5036155;28;20292;-81
2022/04/12 12:29:35;;;;;;;;;;;21.50;35.50;;;;;;5035434;28;19979;-80
2022/04/12 12:32:00;;;;;;;;;;;21.70;35.30;;;;;;5030686;28;20445;-79
2022/04/12 12:34:32;;;;;;;;;;;21.80;35.50;;;;;;5026642;28;19921;-79
2022/04/12 12:37:05;;;;;;;;;;;21.80;35.40;;;;;;5035005;28;19936;-80
2022/04/12 12:39:35;;;;;;;;;;;21.60;36.00;;;;;;5049333;28;19940;-80
2022/04/12 12:42:02;;;;;;;;;;;21.60;36.50;;;;;;5035822;28;19984;-79
2022/04/12 12:44:29;;;;;;;;;;;21.60;36.00;;;;;;5019567;28;19917;-81
2022/04/12 12:46:56;;;;;;;;;;;21.70;35.20;;;;;;5034835;28;19913;-80
2022/04/12 12:49:21;;;;;;;;;;;21.80;34.90;;;;;;5015083;28;19909;-81
2022/04/12 12:51:46;;;;;;;;;;;21.70;35.20;;;;;;5016625;28;19939;-79
2022/04/12 12:54:13;;;;;;;;;;;22.00;35.10;;;;;;5030567;28;19913;-80
2022/04/12 12:56:41;;;;;;;;;;;22.00;34.50;;;;;;5040410;28;19917;-80
2022/04/12 12:59:23;;;;;;;;;;;22.10;35.40;;;;;;5019968;28;19972;-80
2022/04/12 13:01:50;;;;;;;;;;;22.20;35.10;;;;;;5042940;28;20000;-80
2022/04/12 13:04:23;;;;;;;;;;;22.30;34.90;;;;;;5026032;28;19913;-82
2022/04/12 13:06:59;;;;;;;;;;;22.30;34.50;;;;;;5040083;28;19909;-82
2022/04/12 13:09:26;;;;;;;;;;;22.50;34.20;;;;;;5035287;28;19932;-81
2022/04/12 13:11:51;;;;;;;;;;;22.60;34.00;;;;;;5035720;28;19909;-80
2022/04/12 13:14:20;;;;;;;;;;;22.60;33.70;;;;;;5020299;28;19920;-82
2022/04/12 13:16:46;;;;;;;;;;;22.50;34.20;;;;;;5023341;28;19909;-81
2022/04/12 13:19:14;;;;;;;;;;;22.80;33.50;;;;;;5022300;28;19922;-80
2022/04/12 13:21:42;;;;;;;;;;;23.00;33.50;;;;;;5018376;28;20365;-80
2022/04/12 13:24:08;;;;;;;;;;;22.80;33.80;;;;;;5016719;28;20507;-81
2022/04/12 13:26:33;;;;;;;;;;;22.70;35.60;;;;;;5017849;28;19917;-80
2022/04/12 13:28:59;;;;;;;;;;;22.60;34.00;;;;;;5020123;28;19910;-79
2022/04/12 13:31:24;;;;;;;;;;;22.60;34.00;;;;;;5029336;28;19914;-81
2022/04/12 13:33:50;;;;;;;;;;;22.60;33.80;;;;;;5045016;28;20019;-79
2022/04/12 13:36:16;;;;;;;;;;;22.90;32.90;;;;;;5036526;28;20000;-80
2022/04/12 13:38:41;;;;;;;;;;;22.80;33.10;;;;;;5042888;28;19913;-80
2022/04/12 13:41:07;;;;;;;;;;;22.80;33.60;;;;;;5042739;28;19917;-80
2022/04/12 13:43:33;;;;;;;;;;;22.60;34.60;;;;;;5035250;28;20362;-81
2022/04/12 13:45:58;;;;;;;;;;;22.90;34.50;;;;;;5030374;28;19944;-79
2022/04/12 13:48:24;;;;;;;;;;;22.90;35.00;;;;;;5036364;28;19917;-81
2022/04/12 13:50:51;;;;;;;;;;;23.00;34.60;;;;;;5031090;28;19913;-81
2022/04/12 13:53:17;;;;;;;;;;;22.90;33.40;;;;;;5029878;28;19914;-81
2022/04/12 13:55:43;;;;;;;;;;;22.90;33.40;;;;;;5025294;28;19920;-81
2022/04/12 13:58:08;;;;;;;;;;;22.90;33.90;;;;;;5021627;28;19913;-81
2022/04/12 14:00:34;;;;;;;;;;;22.80;34.90;;;;;;5020729;28;19975;-81
2022/04/12 14:03:00;;;;;;;;;;;22.50;34.50;;;;;;5031053;28;20830;-80
2022/04/12 14:05:25;;;;;;;;;;;22.50;34.20;;;;;;5033657;28;20003;-79
2022/04/12 14:07:51;;;;;;;;;;;22.50;34.60;;;;;;5025843;28;19913;-79
2022/04/12 14:10:16;;;;;;;;;;;22.50;34.50;;;;;;5022898;28;20004;-79
2022/04/12 14:12:42;;;;;;;;;;;22.70;33.50;;;;;;5026757;28;20275;-78
2022/04/12 14:15:08;;;;;;;;;;;22.70;33.00;;;;;;5026443;28;19943;-79
2022/04/12 14:17:33;;;;;;;;;;;22.60;33.40;;;;;;5035545;28;19928;-80
2022/04/12 14:19:59;;;;;;;;;;;22.50;34.70;;;;;;5030756;28;19984;-81